createdAt,value
2023-05-24T00:00:22.478Z,82.92
2023-05-24T00:01:22.318Z,82.82
2023-05-24T00:02:22.275Z,83.59
2023-05-24T00:03:22.252Z,84.06
2023-05-24T00:04:22.128Z,85.12
2023-05-24T00:05:21.988Z,84.55
2023-05-24T00:06:21.907Z,85.21
2023-05-24T00:07:21.832Z,83.59
2023-05-24T00:08:21.754Z,82.53
2023-05-24T00:09:21.719Z,83.59
2023-05-24T00:10:21.604Z,83.39
2023-05-24T00:11:21.544Z,82.92
2023-05-24T00:12:21.448Z,82.73
2023-05-24T00:13:21.353Z,83.20
2023-05-24T00:14:21.297Z,82.92
2023-05-24T00:15:21.216Z,83.01
2023-05-24T00:16:21.140Z,82.53
2023-05-24T00:17:21.066Z,81.29
2023-05-24T00:18:20.973Z,82.34
2023-05-24T00:19:21.147Z,81.57
2023-05-24T00:20:21.092Z,81.67
2023-05-24T00:21:20.729Z,81.48
2023-05-24T00:22:20.650Z,80.81
2023-05-24T00:23:20.613Z,80.81
2023-05-24T00:24:20.496Z,78.89
2023-05-24T00:25:20.413Z,79.66
2023-05-24T00:26:20.387Z,78.22
2023-05-24T00:27:20.261Z,79.28
2023-05-24T00:28:20.203Z,79.57
2023-05-24T00:29:20.104Z,78.61
2023-05-24T00:30:20.032Z,79.57
2023-05-24T00:31:19.961Z,79.95
2023-05-24T00:32:19.908Z,80.52
2023-05-24T00:33:19.791Z,81.48
2023-05-24T00:34:19.725Z,80.14
2023-05-24T00:35:19.636Z,80.04
2023-05-24T00:36:19.580Z,78.99
2023-05-24T00:37:19.474Z,77.70
2023-05-24T00:38:19.397Z,77.08
2023-05-24T00:39:19.319Z,77.17
2023-05-24T00:40:19.234Z,75.64
2023-05-24T00:41:19.160Z,75.45
2023-05-24T00:42:19.082Z,75.64
2023-05-24T00:43:19.001Z,77.61
2023-05-24T00:44:18.921Z,77.55
2023-05-24T00:45:18.848Z,77.42
2023-05-24T00:46:18.847Z,77.61
2023-05-24T00:47:18.692Z,77.61
2023-05-24T00:48:18.614Z,79.24
2023-05-24T00:49:18.532Z,80.48
2023-05-24T00:50:18.494Z,79.14
2023-05-24T00:51:18.374Z,80.48
2023-05-24T00:52:18.297Z,80.00
2023-05-24T00:53:18.215Z,80.10
2023-05-24T00:54:18.138Z,82.49
2023-05-24T00:55:18.060Z,82.59
2023-05-24T00:56:17.976Z,83.26
2023-05-24T00:57:17.912Z,85.46
2023-05-24T00:58:17.821Z,87.08
2023-05-24T00:59:17.746Z,91.68
2023-05-24T01:00:17.666Z,91.53
2023-05-24T01:01:17.587Z,92.59
2023-05-24T01:02:17.534Z,91.83
2023-05-24T01:03:17.491Z,88.95
2023-05-24T01:04:17.365Z,90.01
2023-05-24T01:05:17.299Z,91.44
2023-05-24T01:06:17.200Z,92.40
2023-05-24T01:07:17.114Z,93.84
2023-05-24T01:08:17.038Z,93.16
2023-05-24T01:09:16.957Z,91.63
2023-05-24T01:10:16.879Z,91.25
2023-05-24T01:11:16.806Z,92.59
2023-05-24T01:12:16.738Z,91.83
2023-05-24T01:13:16.642Z,90.87
2023-05-24T01:14:16.565Z,91.25
2023-05-24T01:15:16.495Z,92.21
2023-05-24T01:16:16.419Z,92.21
2023-05-24T01:17:16.330Z,92.69
2023-05-24T01:18:16.256Z,93.16
2023-05-24T01:19:16.182Z,93.93
2023-05-24T01:20:16.113Z,93.55
2023-05-24T01:21:16.014Z,94.21
2023-05-24T01:22:15.934Z,93.93
2023-05-24T01:23:15.858Z,92.69
2023-05-24T01:24:15.809Z,92.88
2023-05-24T01:25:15.696Z,92.40
2023-05-24T01:26:15.620Z,90.96
2023-05-24T01:27:15.550Z,92.78
2023-05-24T01:28:15.461Z,92.78
2023-05-24T01:29:15.386Z,92.49
2023-05-24T01:30:15.330Z,93.12
2023-05-24T01:31:15.239Z,92.16
2023-05-24T01:32:15.148Z,91.88
2023-05-24T01:33:15.075Z,93.07
2023-05-24T01:34:14.990Z,93.69
2023-05-24T01:35:14.917Z,93.98
2023-05-24T01:36:14.837Z,94.17
2023-05-24T01:37:14.767Z,93.88
2023-05-24T01:38:14.665Z,92.35
2023-05-24T01:39:14.589Z,93.12
2023-05-24T01:40:14.515Z,92.07
2023-05-24T01:41:14.427Z,92.74
2023-05-24T01:42:14.360Z,94.17
2023-05-24T01:43:14.275Z,92.74
2023-05-24T01:44:14.191Z,92.35
2023-05-24T01:45:14.112Z,92.25
2023-05-24T01:46:14.060Z,91.97
2023-05-24T01:47:13.954Z,91.97
2023-05-24T01:48:13.877Z,93.88
2023-05-24T01:49:13.799Z,92.54
2023-05-24T01:50:13.724Z,94.26
2023-05-24T01:51:13.646Z,94.26
2023-05-24T01:52:13.584Z,91.59
2023-05-24T01:53:13.491Z,92.16
2023-05-24T01:54:13.400Z,91.59
2023-05-24T01:55:13.317Z,93.50
2023-05-24T01:56:13.254Z,93.50
2023-05-24T01:57:13.161Z,94.07
2023-05-24T01:58:13.118Z,94.65
2023-05-24T01:59:13.022Z,94.17
2023-05-24T02:00:12.929Z,94.07
2023-05-24T02:01:12.892Z,93.79
2023-05-24T02:02:12.795Z,94.36
2023-05-24T02:03:12.738Z,95.70
2023-05-24T02:04:12.606Z,96.18
2023-05-24T02:05:12.527Z,95.51
2023-05-24T02:06:12.463Z,95.79
2023-05-24T02:07:12.372Z,95.03
2023-05-24T02:08:12.287Z,97.04
2023-05-24T02:09:12.208Z,98.38
2023-05-24T02:10:12.125Z,98.09
2023-05-24T02:11:12.053Z,96.56
2023-05-24T02:12:11.985Z,98.18
2023-05-24T02:13:11.892Z,96.27
2023-05-24T02:14:11.816Z,95.22
2023-05-24T02:15:11.745Z,96.94
2023-05-24T02:16:11.693Z,98.28
2023-05-24T02:17:11.579Z,98.47
2023-05-24T02:18:11.501Z,98.28
2023-05-24T02:19:11.424Z,99.04
2023-05-24T02:20:11.394Z,98.28
2023-05-24T02:21:11.260Z,99.43
2023-05-24T02:22:11.183Z,97.99
2023-05-24T02:23:11.106Z,98.75
2023-05-24T02:24:11.038Z,99.99
2023-05-24T02:25:10.952Z,99.99
2023-05-24T02:26:10.868Z,99.99
2023-05-24T02:27:10.803Z,99.99
2023-05-24T02:28:10.723Z,99.99
2023-05-24T02:29:10.650Z,99.76
2023-05-24T02:30:10.565Z,99.95
2023-05-24T02:31:10.502Z,99.99
2023-05-24T02:32:10.392Z,99.99
2023-05-24T02:33:10.343Z,99.99
2023-05-24T02:34:10.242Z,99.99
2023-05-24T02:35:10.171Z,99.99
2023-05-24T02:36:10.079Z,99.99
2023-05-24T02:37:10.000Z,99.99
2023-05-24T02:38:09.937Z,99.99
2023-05-24T02:39:09.834Z,99.99
2023-05-24T02:40:09.759Z,99.99
2023-05-24T02:41:09.676Z,99.99
2023-05-24T02:42:09.608Z,99.99
2023-05-24T02:43:09.519Z,99.95
2023-05-24T02:44:09.440Z,99.99
2023-05-24T02:45:09.358Z,99.99
2023-05-24T02:46:09.321Z,99.99
2023-05-24T02:47:09.203Z,99.99
2023-05-24T02:48:09.124Z,99.99
2023-05-24T02:49:09.049Z,99.99
2023-05-24T02:50:08.965Z,99.99
2023-05-24T02:51:08.886Z,99.99
2023-05-24T02:52:08.817Z,99.99
2023-05-24T02:53:08.731Z,99.99
2023-05-24T02:54:08.653Z,99.99
2023-05-24T02:55:08.583Z,99.99
2023-05-24T02:56:08.496Z,99.99
2023-05-24T02:57:08.426Z,99.99
2023-05-24T02:58:08.368Z,99.99
2023-05-24T02:59:08.248Z,99.99
2023-05-24T03:00:08.169Z,99.99
2023-05-24T03:01:08.088Z,99.99
2023-05-24T03:02:08.054Z,99.99
2023-05-24T03:03:07.990Z,99.99
2023-05-24T03:04:07.976Z,99.99
2023-05-24T03:05:07.768Z,99.99
2023-05-24T03:06:07.691Z,99.99
2023-05-24T03:07:07.613Z,99.99
2023-05-24T03:08:07.529Z,99.99
2023-05-24T03:09:07.458Z,99.99
2023-05-24T03:10:07.383Z,99.99
2023-05-24T03:11:07.291Z,99.99
2023-05-24T03:12:07.224Z,99.99
2023-05-24T03:13:07.147Z,99.99
2023-05-24T03:14:07.064Z,99.99
2023-05-24T03:15:06.975Z,99.99
2023-05-24T03:16:06.919Z,99.99
2023-05-24T03:17:06.818Z,99.99
2023-05-24T03:18:06.746Z,99.99
2023-05-24T03:19:09.773Z,99.99
2023-05-24T03:20:06.615Z,99.99
2023-05-24T03:21:06.539Z,99.99
2023-05-24T03:22:06.418Z,99.99
2023-05-24T03:23:06.370Z,99.99
2023-05-24T03:24:06.261Z,99.99
2023-05-24T03:25:06.207Z,99.99
2023-05-24T03:26:06.104Z,99.99
2023-05-24T03:27:06.035Z,99.99
2023-05-24T03:28:05.951Z,99.99
2023-05-24T03:29:05.889Z,99.95
2023-05-24T03:30:05.784Z,99.99
2023-05-24T03:31:05.710Z,99.99
2023-05-24T03:32:05.689Z,99.99
2023-05-24T03:33:05.584Z,99.99
2023-05-24T03:34:05.466Z,99.99
2023-05-24T03:35:05.392Z,99.99
2023-05-24T03:36:05.304Z,99.99
2023-05-24T03:37:05.230Z,99.99
2023-05-24T03:38:05.148Z,99.99
2023-05-24T03:39:05.089Z,99.99
2023-05-24T03:40:04.996Z,99.99
2023-05-24T03:41:04.911Z,99.99
2023-05-24T03:42:04.853Z,99.99
2023-05-24T03:43:04.823Z,99.99
2023-05-24T03:44:04.675Z,99.99
2023-05-24T03:45:04.604Z,99.99
2023-05-24T03:46:04.528Z,99.99
2023-05-24T03:47:04.435Z,99.99
2023-05-24T03:48:04.454Z,99.99
2023-05-24T03:49:04.277Z,99.99
2023-05-24T03:50:04.208Z,99.99
2023-05-24T03:51:04.144Z,99.99
2023-05-24T03:52:04.034Z,99.99
2023-05-24T03:53:03.963Z,99.99
2023-05-24T03:54:03.884Z,99.99
2023-05-24T03:55:03.794Z,99.99
2023-05-24T03:56:03.721Z,99.99
2023-05-24T03:57:03.633Z,99.99
2023-05-24T03:58:03.564Z,99.99
2023-05-24T03:59:03.492Z,99.99
2023-05-24T04:00:03.397Z,99.99
2023-05-24T04:01:03.324Z,99.99
2023-05-24T04:02:03.270Z,99.99
2023-05-24T04:03:03.239Z,99.99
2023-05-24T04:04:03.165Z,99.99
2023-05-24T04:05:02.995Z,99.99
2023-05-24T04:06:02.938Z,99.99
2023-05-24T04:07:02.840Z,99.99
2023-05-24T04:08:02.759Z,99.99
2023-05-24T04:09:02.690Z,99.99
2023-05-24T04:10:02.605Z,99.99
2023-05-24T04:11:02.530Z,99.99
2023-05-24T04:12:02.473Z,99.99
2023-05-24T04:13:02.384Z,99.99
2023-05-24T04:14:02.289Z,99.99
2023-05-24T04:15:02.225Z,99.99
2023-05-24T04:16:02.121Z,99.99
2023-05-24T04:17:02.154Z,99.99
2023-05-24T04:18:02.008Z,99.66
2023-05-24T04:19:01.914Z,99.85
2023-05-24T04:20:01.832Z,99.99
2023-05-24T04:21:01.753Z,99.99
2023-05-24T04:22:01.644Z,99.76
2023-05-24T04:23:01.568Z,99.99
2023-05-24T04:24:01.549Z,99.38
2023-05-24T04:25:01.501Z,99.99
2023-05-24T04:26:01.326Z,98.57
2023-05-24T04:27:01.251Z,99.09
2023-05-24T04:28:01.170Z,98.37
2023-05-24T04:29:01.090Z,98.85
2023-05-24T04:30:01.013Z,98.13
2023-05-24T04:31:00.970Z,97.13
2023-05-24T04:32:00.882Z,98.04
2023-05-24T04:33:00.859Z,99.90
2023-05-24T04:34:00.697Z,99.99
2023-05-24T04:35:00.619Z,99.99
2023-05-24T04:36:00.534Z,99.76
2023-05-24T04:37:00.460Z,99.99
2023-05-24T04:38:00.383Z,98.23
2023-05-24T04:39:00.295Z,99.99
2023-05-24T04:40:00.229Z,98.90
2023-05-24T04:41:00.169Z,98.90
2023-05-24T04:42:00.070Z,97.85
2023-05-24T04:42:59.976Z,98.04
2023-05-24T04:43:59.905Z,99.09
2023-05-24T04:44:59.816Z,99.99
2023-05-24T04:45:59.739Z,99.19
2023-05-24T04:46:59.747Z,99.48
2023-05-24T04:47:59.627Z,98.04
2023-05-24T04:48:59.502Z,98.23
2023-05-24T04:49:59.430Z,99.57
2023-05-24T04:50:59.339Z,96.80
2023-05-24T04:51:59.314Z,99.85
2023-05-24T04:52:59.190Z,99.48
2023-05-24T04:53:59.108Z,99.99
2023-05-24T04:54:59.027Z,98.80
2023-05-24T04:55:58.948Z,99.95
2023-05-24T04:56:58.868Z,99.99
2023-05-24T04:57:58.796Z,99.99
2023-05-24T04:58:58.724Z,99.99
2023-05-24T04:59:58.633Z,97.94
2023-05-24T05:00:58.554Z,98.23
2023-05-24T05:01:58.526Z,99.76
2023-05-24T05:02:58.457Z,99.76
2023-05-24T05:03:58.330Z,98.13
2023-05-24T05:04:58.233Z,99.38
2023-05-24T05:05:58.162Z,98.33
2023-05-24T05:06:58.085Z,99.28
2023-05-24T05:07:57.993Z,99.43
2023-05-24T05:08:57.916Z,99.99
2023-05-24T05:09:57.839Z,99.99
2023-05-24T05:10:57.760Z,99.99
2023-05-24T05:11:57.681Z,99.99
2023-05-24T05:12:57.602Z,99.99
2023-05-24T05:13:57.520Z,98.57
2023-05-24T05:14:57.453Z,98.95
2023-05-24T05:15:57.382Z,99.99
2023-05-24T05:16:57.338Z,98.09
2023-05-24T05:17:57.251Z,97.23
2023-05-24T05:18:57.121Z,99.99
2023-05-24T05:19:57.163Z,99.71
2023-05-24T05:20:56.965Z,98.57
2023-05-24T05:21:56.884Z,99.99
2023-05-24T05:22:56.820Z,99.99
2023-05-24T05:23:56.740Z,99.99
2023-05-24T05:24:56.648Z,99.99
2023-05-24T05:25:56.579Z,99.99
2023-05-24T05:26:56.502Z,99.99
2023-05-24T05:27:56.414Z,99.99
2023-05-24T05:28:56.335Z,99.99
2023-05-24T05:29:56.263Z,99.99
2023-05-24T05:30:56.169Z,99.99
2023-05-24T05:31:56.152Z,99.99
2023-05-24T05:32:56.056Z,99.99
2023-05-24T05:33:55.956Z,99.99
2023-05-24T05:34:55.864Z,99.99
2023-05-24T05:35:55.778Z,99.99
2023-05-24T05:36:55.700Z,99.99
2023-05-24T05:37:55.632Z,99.99
2023-05-24T05:38:55.565Z,99.99
2023-05-24T05:39:55.487Z,99.99
2023-05-24T05:40:55.386Z,99.99
2023-05-24T05:41:55.311Z,99.99
2023-05-24T05:42:55.234Z,99.99
2023-05-24T05:43:55.143Z,99.99
2023-05-24T05:44:55.074Z,99.99
2023-05-24T05:45:55.008Z,99.99
2023-05-24T05:46:54.912Z,99.99
2023-05-24T05:47:54.843Z,99.99
2023-05-24T05:48:54.753Z,99.99
2023-05-24T05:49:54.689Z,99.99
2023-05-24T05:50:54.599Z,99.99
2023-05-24T05:51:54.524Z,99.24
2023-05-24T05:52:54.433Z,99.99
2023-05-24T05:53:54.371Z,99.99
2023-05-24T05:54:54.288Z,99.99
2023-05-24T05:55:54.197Z,99.99
2023-05-24T05:56:54.115Z,99.99
2023-05-24T05:57:54.042Z,99.62
2023-05-24T05:58:53.969Z,99.99
2023-05-24T05:59:53.901Z,99.99
2023-05-24T06:00:53.807Z,99.99
2023-05-24T06:01:53.718Z,99.99
2023-05-24T06:02:53.707Z,99.99
2023-05-24T06:03:53.619Z,99.99
2023-05-24T06:04:53.583Z,99.99
2023-05-24T06:05:53.415Z,99.99
2023-05-24T06:06:53.340Z,99.99
2023-05-24T06:07:53.271Z,99.99
2023-05-24T06:08:53.167Z,99.99
2023-05-24T06:09:53.091Z,99.99
2023-05-24T06:10:53.233Z,99.99
2023-05-24T06:11:52.940Z,99.99
2023-05-24T06:12:52.848Z,99.99
2023-05-24T06:13:52.779Z,99.99
2023-05-24T06:14:52.712Z,99.99
2023-05-24T06:15:52.666Z,99.99
2023-05-24T06:16:52.539Z,99.99
2023-05-24T06:17:52.491Z,99.99
2023-05-24T06:19:04.680Z,99.99
2023-05-24T06:19:52.309Z,99.99
2023-05-24T06:20:52.221Z,99.99
2023-05-24T06:21:52.196Z,99.99
2023-05-24T06:22:52.060Z,99.99
2023-05-24T06:23:51.986Z,99.99
2023-05-24T06:24:51.909Z,99.99
2023-05-24T06:25:51.826Z,99.99
2023-05-24T06:26:51.755Z,99.99
2023-05-24T06:27:51.687Z,99.99
2023-05-24T06:28:51.595Z,99.99
2023-05-24T06:29:51.577Z,99.86
2023-05-24T06:30:51.482Z,99.99
2023-05-24T06:31:51.567Z,99.99
2023-05-24T06:32:51.361Z,99.99
2023-05-24T06:34:02.544Z,99.99
2023-05-24T06:34:51.119Z,99.99
2023-05-24T06:35:51.047Z,99.99
2023-05-24T06:36:50.986Z,99.99
2023-05-24T06:37:50.885Z,99.99
2023-05-24T06:38:50.803Z,99.99
2023-05-24T06:39:50.724Z,99.99
2023-05-24T06:40:50.647Z,99.99
2023-05-24T06:41:50.582Z,99.99
2023-05-24T06:42:50.490Z,99.99
2023-05-24T06:43:50.411Z,99.99
2023-05-24T06:44:50.338Z,99.99
2023-05-24T06:45:50.274Z,99.99
2023-05-24T06:46:50.191Z,99.99
2023-05-24T06:47:50.124Z,99.99
2023-05-24T06:48:50.071Z,99.99
2023-05-24T06:49:49.994Z,99.99
2023-05-24T06:50:49.867Z,99.99
2023-05-24T06:51:49.778Z,99.99
2023-05-24T06:52:49.783Z,99.99
2023-05-24T06:53:49.796Z,99.99
2023-05-24T06:54:49.546Z,99.99
2023-05-24T06:55:49.463Z,99.99
2023-05-24T06:56:49.385Z,99.99
2023-05-24T06:57:49.309Z,99.99
2023-05-24T06:58:49.224Z,99.99
2023-05-24T06:59:49.159Z,99.99
2023-05-24T07:00:49.101Z,99.99
2023-05-24T07:01:49.069Z,99.99
2023-05-24T07:02:49.034Z,99.99
2023-05-24T07:03:48.833Z,99.99
2023-05-24T07:04:48.808Z,99.99
2023-05-24T07:05:48.673Z,99.99
2023-05-24T07:06:48.603Z,99.99
2023-05-24T07:07:48.516Z,99.99
2023-05-24T07:08:48.438Z,99.99
2023-05-24T07:09:48.381Z,99.99
2023-05-24T07:10:48.293Z,99.99
2023-05-24T07:11:48.299Z,99.99
2023-05-24T07:12:48.117Z,99.99
2023-05-24T07:13:48.041Z,99.99
2023-05-24T07:14:47.979Z,99.99
2023-05-24T07:15:47.889Z,99.99
2023-05-24T07:16:47.842Z,99.99
2023-05-24T07:17:47.756Z,99.99
2023-05-24T07:18:47.668Z,99.99
2023-05-24T07:19:47.574Z,99.99
2023-05-24T07:20:48.040Z,99.99
2023-05-24T07:21:47.423Z,99.99
2023-05-24T07:22:47.346Z,99.99
2023-05-24T07:23:47.256Z,99.99
2023-05-24T07:24:47.177Z,99.99
2023-05-24T07:25:47.121Z,99.99
2023-05-24T07:26:47.021Z,99.99
2023-05-24T07:27:46.946Z,99.99
2023-05-24T07:28:46.896Z,99.99
2023-05-24T07:29:48.203Z,99.99
2023-05-24T07:30:46.814Z,99.99
2023-05-24T07:31:46.694Z,99.99
2023-05-24T07:32:46.623Z,99.99
2023-05-24T07:33:46.473Z,99.99
2023-05-24T07:34:46.387Z,99.99
2023-05-24T07:35:46.317Z,99.99
2023-05-24T07:36:46.233Z,99.99
2023-05-24T07:37:46.158Z,99.99
2023-05-24T07:38:46.102Z,99.99
2023-05-24T07:39:45.994Z,99.99
2023-05-24T07:40:45.955Z,99.99
2023-05-24T07:41:45.858Z,99.99
2023-05-24T07:42:45.765Z,99.99
2023-05-24T07:43:45.687Z,99.99
2023-05-24T07:44:45.610Z,99.99
2023-05-24T07:45:45.593Z,99.99
2023-05-24T07:46:45.463Z,99.99
2023-05-24T07:47:45.433Z,99.99
2023-05-24T07:48:45.297Z,99.99
2023-05-24T07:49:45.226Z,99.99
2023-05-24T07:50:45.139Z,99.99
2023-05-24T07:51:45.056Z,99.99
2023-05-24T07:52:44.980Z,99.99
2023-05-24T07:53:44.901Z,99.99
2023-05-24T07:54:44.823Z,99.99
2023-05-24T07:55:44.929Z,99.99
2023-05-24T07:56:44.662Z,99.99
2023-05-24T07:57:44.697Z,99.99
2023-05-24T07:58:44.517Z,99.99
2023-05-24T07:59:44.434Z,99.99
2023-05-24T08:00:44.350Z,99.99
2023-05-24T08:01:44.269Z,99.99
2023-05-24T08:02:44.358Z,99.99
2023-05-24T08:03:44.301Z,99.99
2023-05-24T08:04:44.050Z,99.99
2023-05-24T08:05:44.337Z,99.99
2023-05-24T08:06:43.922Z,99.99
2023-05-24T08:07:43.893Z,99.99
2023-05-24T08:08:43.782Z,99.99
2023-05-24T08:09:43.672Z,99.99
2023-05-24T08:10:43.573Z,99.99
2023-05-24T08:11:43.510Z,99.99
2023-05-24T08:12:43.431Z,99.99
2023-05-24T08:13:43.330Z,99.99
2023-05-24T08:14:43.257Z,99.99
2023-05-24T08:15:43.411Z,99.99
2023-05-24T08:16:43.159Z,99.99
2023-05-24T08:17:43.080Z,99.99
2023-05-24T08:18:42.946Z,99.99
2023-05-24T08:19:42.895Z,99.99
2023-05-24T08:20:42.889Z,99.99
2023-05-24T08:21:42.706Z,99.99
2023-05-24T08:22:42.660Z,99.99
2023-05-24T08:23:42.561Z,99.99
2023-05-24T08:24:42.467Z,99.99
2023-05-24T08:25:42.491Z,99.99
2023-05-24T08:26:42.310Z,99.99
2023-05-24T08:27:42.230Z,99.99
2023-05-24T08:28:42.157Z,99.99
2023-05-24T08:29:42.227Z,99.99
2023-05-24T08:30:42.030Z,99.99
2023-05-24T08:31:41.950Z,99.99
2023-05-24T08:32:41.928Z,99.99
2023-05-24T08:33:41.761Z,99.99
2023-05-24T08:34:41.694Z,99.99
2023-05-24T08:35:41.746Z,99.99
2023-05-24T08:36:41.533Z,99.99
2023-05-24T08:37:41.454Z,99.99
2023-05-24T08:38:41.371Z,99.99
2023-05-24T08:39:41.296Z,99.99
2023-05-24T08:40:41.221Z,99.99
2023-05-24T08:41:41.144Z,99.99
2023-05-24T08:42:41.099Z,99.99
2023-05-24T08:43:40.989Z,99.99
2023-05-24T08:44:40.901Z,99.99
2023-05-24T08:45:41.195Z,99.99
2023-05-24T08:46:40.856Z,99.99
2023-05-24T08:47:40.727Z,99.99
2023-05-24T08:48:40.595Z,99.99
2023-05-24T08:49:40.519Z,99.99
2023-05-24T08:50:40.454Z,99.99
2023-05-24T08:51:40.357Z,99.99
2023-05-24T08:52:40.279Z,99.99
2023-05-24T08:53:40.220Z,99.99
2023-05-24T08:54:40.137Z,99.99
2023-05-24T08:55:40.191Z,99.99
2023-05-24T08:56:39.969Z,99.99
2023-05-24T08:57:40.162Z,99.99
2023-05-24T08:58:39.812Z,99.99
2023-05-24T08:59:39.733Z,99.99
2023-05-24T09:00:39.668Z,99.99
2023-05-24T09:01:39.637Z,99.99
2023-05-24T09:02:39.546Z,99.99
2023-05-24T09:03:39.511Z,99.99
2023-05-24T09:04:39.338Z,99.99
2023-05-24T09:05:39.272Z,99.99
2023-05-24T09:06:39.199Z,99.99
2023-05-24T09:07:39.136Z,99.99
2023-05-24T09:08:40.150Z,99.99
2023-05-24T09:09:38.951Z,99.99
2023-05-24T09:10:53.152Z,99.99
2023-05-24T09:11:39.570Z,99.99
2023-05-24T09:12:39.468Z,99.99
2023-05-24T09:13:38.642Z,99.99
2023-05-24T09:14:38.568Z,99.99
2023-05-24T09:15:38.501Z,99.99
2023-05-24T09:16:38.529Z,99.99
2023-05-24T09:17:38.550Z,99.99
2023-05-24T09:18:38.258Z,99.99
2023-05-24T09:19:38.172Z,99.99
2023-05-24T09:20:38.149Z,99.99
2023-05-24T09:21:38.022Z,99.99
2023-05-24T09:22:40.366Z,99.99
2023-05-24T09:23:37.867Z,99.99
2023-05-24T09:24:37.784Z,99.99
2023-05-24T09:25:37.707Z,99.99
2023-05-24T09:26:37.645Z,99.99
2023-05-24T09:27:37.591Z,99.99
2023-05-24T09:28:37.481Z,99.01
2023-05-24T09:29:37.396Z,97.52
2023-05-24T09:30:37.314Z,99.34
2023-05-24T09:31:37.331Z,99.99
2023-05-24T09:32:37.302Z,99.99
2023-05-24T09:33:37.087Z,99.99
2023-05-24T09:34:37.006Z,99.99
2023-05-24T09:35:36.938Z,99.72
2023-05-24T09:36:36.899Z,99.99
2023-05-24T09:37:36.766Z,99.99
2023-05-24T09:38:37.065Z,99.99
2023-05-24T09:39:36.619Z,99.99
2023-05-24T09:40:36.542Z,99.99
2023-05-24T09:41:36.457Z,99.99
2023-05-24T09:42:36.385Z,99.99
2023-05-24T09:43:36.368Z,99.99
2023-05-24T09:44:36.226Z,99.99
2023-05-24T09:45:36.150Z,99.99
2023-05-24T09:46:36.111Z,99.99
2023-05-24T09:47:36.019Z,99.99
2023-05-24T09:48:35.927Z,99.99
2023-05-24T09:49:35.868Z,99.99
2023-05-24T09:50:35.786Z,99.99
2023-05-24T09:51:35.690Z,99.99
2023-05-24T09:52:36.106Z,99.99
2023-05-24T09:53:35.533Z,99.99
2023-05-24T09:54:35.452Z,99.99
2023-05-24T09:55:35.384Z,99.99
2023-05-24T09:56:35.307Z,99.99
2023-05-24T09:57:35.262Z,99.99
2023-05-24T09:58:35.155Z,99.99
2023-05-24T09:59:35.071Z,99.99
2023-05-24T10:00:34.995Z,99.99
2023-05-24T10:01:34.991Z,99.99
2023-05-24T10:02:41.594Z,99.99
2023-05-24T10:03:34.866Z,99.99
2023-05-24T10:04:34.711Z,99.99
2023-05-24T10:05:34.690Z,99.99
2023-05-24T10:06:34.525Z,99.99
2023-05-24T10:07:34.471Z,99.99
2023-05-24T10:08:34.364Z,99.99
2023-05-24T10:09:34.294Z,98.86
2023-05-24T10:10:34.236Z,99.63
2023-05-24T10:11:34.140Z,99.63
2023-05-24T10:12:34.063Z,99.99
2023-05-24T10:13:33.988Z,99.99
2023-05-24T10:14:33.906Z,99.99
2023-05-24T10:15:33.842Z,99.99
2023-05-24T10:16:33.783Z,99.99
2023-05-24T10:17:33.682Z,99.99
2023-05-24T10:18:33.602Z,99.99
2023-05-24T10:19:33.518Z,99.99
2023-05-24T10:20:33.450Z,99.99
2023-05-24T10:21:33.398Z,99.99
2023-05-24T10:22:33.304Z,99.99
2023-05-24T10:23:33.219Z,99.19
2023-05-24T10:24:33.158Z,98.43
2023-05-24T10:25:33.054Z,98.47
2023-05-24T10:26:32.977Z,97.71
2023-05-24T10:27:32.894Z,97.33
2023-05-24T10:28:32.818Z,97.52
2023-05-24T10:29:32.746Z,98.47
2023-05-24T10:30:32.705Z,99.99
2023-05-24T10:31:32.629Z,99.72
2023-05-24T10:32:32.590Z,99.43
2023-05-24T10:33:32.447Z,99.99
2023-05-24T10:34:32.348Z,99.99
2023-05-24T10:35:32.277Z,99.99
2023-05-24T10:36:32.194Z,99.99
2023-05-24T10:37:32.145Z,99.99
2023-05-24T10:38:32.042Z,99.99
2023-05-24T10:39:31.966Z,99.99
2023-05-24T10:40:31.902Z,99.99
2023-05-24T10:41:31.808Z,99.58
2023-05-24T10:42:31.740Z,99.99
2023-05-24T10:43:31.653Z,99.99
2023-05-24T10:44:31.582Z,99.99
2023-05-24T10:45:31.496Z,99.99
2023-05-24T10:46:31.451Z,99.99
2023-05-24T10:47:31.367Z,99.91
2023-05-24T10:48:31.272Z,99.53
2023-05-24T10:49:31.185Z,96.66
2023-05-24T10:50:31.107Z,94.07
2023-05-24T10:51:31.030Z,95.21
2023-05-24T10:52:30.955Z,97.61
2023-05-24T10:53:30.882Z,99.73
2023-05-24T10:54:30.807Z,99.53
2023-05-24T10:55:30.725Z,96.85
2023-05-24T10:56:30.654Z,97.42
2023-05-24T10:57:30.579Z,98.19
2023-05-24T10:58:30.588Z,99.99
2023-05-24T10:59:30.415Z,99.99
2023-05-24T11:01:30.305Z,95.46
2023-05-24T11:02:30.218Z,98.24
2023-05-24T11:03:30.108Z,95.26
2023-05-24T11:04:30.032Z,94.69
2023-05-24T11:05:29.969Z,98.48
2023-05-24T11:06:29.880Z,99.29
2023-05-24T11:07:29.793Z,99.99
2023-05-24T11:08:29.723Z,99.99
2023-05-24T11:09:29.654Z,98.86
2023-05-24T11:10:29.576Z,95.89
2023-05-24T11:11:32.091Z,96.70
2023-05-24T11:12:29.420Z,96.03
2023-05-24T11:13:29.340Z,96.32
2023-05-24T11:14:29.268Z,98.33
2023-05-24T11:15:29.188Z,98.29
2023-05-24T11:16:29.134Z,98.38
2023-05-24T11:17:29.092Z,95.89
2023-05-24T11:18:28.968Z,95.65
2023-05-24T11:19:28.885Z,97.33
2023-05-24T11:20:28.894Z,95.12
2023-05-24T11:21:28.753Z,91.62
2023-05-24T11:22:28.655Z,91.62
2023-05-24T11:23:28.568Z,92.53
2023-05-24T11:24:28.496Z,91.76
2023-05-24T11:25:28.435Z,94.35
2023-05-24T11:26:28.346Z,96.56
2023-05-24T11:27:28.268Z,91.66
2023-05-24T11:28:28.289Z,89.84
2023-05-24T11:29:28.117Z,88.35
2023-05-24T11:30:28.047Z,90.28
2023-05-24T11:31:28.011Z,90.95
2023-05-24T11:32:27.913Z,90.18
2023-05-24T11:33:27.827Z,88.74
2023-05-24T11:34:27.734Z,89.79
2023-05-24T11:35:27.656Z,91.77
2023-05-24T11:36:27.584Z,90.75
2023-05-24T11:37:38.452Z,92.86
2023-05-24T11:38:27.431Z,89.99
2023-05-24T11:39:27.354Z,88.31
2023-05-24T11:40:27.277Z,89.56
2023-05-24T11:41:27.208Z,91.14
2023-05-24T11:42:27.121Z,87.30
2023-05-24T11:43:27.042Z,87.98
2023-05-24T11:44:26.982Z,89.51
2023-05-24T11:45:26.916Z,90.85
2023-05-24T11:46:26.889Z,88.55
2023-05-24T11:47:26.773Z,91.42
2023-05-24T11:48:26.664Z,88.07
2023-05-24T11:49:26.585Z,89.41
2023-05-24T11:50:26.977Z,89.70
2023-05-24T11:51:26.434Z,90.56
2023-05-24T11:52:26.353Z,92.00
2023-05-24T11:53:26.277Z,88.74
2023-05-24T11:54:26.207Z,86.82
2023-05-24T11:55:26.121Z,85.96
2023-05-24T11:56:26.046Z,85.67
2023-05-24T11:57:25.977Z,86.30
2023-05-24T11:58:25.906Z,88.74
2023-05-24T11:59:25.842Z,91.62
2023-05-24T12:00:25.758Z,92.96
2023-05-24T12:01:25.680Z,89.22
2023-05-24T12:02:25.657Z,87.30
2023-05-24T12:03:25.642Z,86.54
2023-05-24T12:04:25.517Z,88.17
2023-05-24T12:05:25.361Z,90.18
2023-05-24T12:06:25.283Z,90.03
2023-05-24T12:07:25.196Z,87.82
2023-05-24T12:08:25.129Z,85.52
2023-05-24T12:09:25.074Z,85.71
2023-05-24T12:10:24.985Z,86.77
2023-05-24T12:11:24.911Z,87.44
2023-05-24T12:12:30.846Z,87.44
2023-05-24T12:13:24.753Z,88.49
2023-05-24T12:14:24.667Z,88.69
2023-05-24T12:15:24.603Z,81.87
2023-05-24T12:16:24.569Z,84.41
2023-05-24T12:17:24.458Z,83.74
2023-05-24T12:18:24.375Z,78.70
2023-05-24T12:19:33.044Z,75.73
2023-05-24T12:20:24.271Z,78.52
2023-05-24T12:21:24.139Z,80.53
2023-05-24T12:22:24.083Z,82.64
2023-05-24T12:23:23.987Z,83.89
2023-05-24T12:24:23.902Z,82.10
2023-05-24T12:25:23.838Z,80.86
2023-05-24T12:26:23.755Z,80.28
2023-05-24T12:27:23.690Z,78.75
2023-05-24T12:28:23.597Z,76.64
2023-05-24T12:29:23.556Z,74.23
2023-05-24T12:30:23.449Z,75.48
2023-05-24T12:31:23.421Z,76.54
2023-05-24T12:32:23.353Z,76.00
2023-05-24T12:33:23.216Z,78.40
2023-05-24T12:34:23.145Z,77.83
2023-05-24T12:35:23.068Z,75.52
2023-05-24T12:36:23.005Z,79.11
2023-05-24T12:37:22.921Z,78.15
2023-05-24T12:38:22.842Z,77.29
2023-05-24T12:39:22.766Z,78.34
2023-05-24T12:40:22.684Z,77.13
2023-05-24T12:41:22.611Z,76.75
2023-05-24T12:42:22.532Z,78.38
2023-05-24T12:43:22.478Z,78.42
2023-05-24T12:44:22.395Z,76.98
2023-05-24T12:45:22.308Z,75.44
2023-05-24T12:46:22.255Z,75.15
2023-05-24T12:47:22.263Z,71.97
2023-05-24T12:48:22.117Z,73.90
2023-05-24T12:49:22.017Z,76.92
2023-05-24T12:50:21.938Z,73.46
2023-05-24T12:51:21.867Z,69.79
2023-05-24T12:52:22.924Z,69.09